createdAt,value
2023-01-21T00:01:42.711Z,-0.15
2023-01-21T00:04:12.849Z,-0.23
2023-01-21T00:06:42.647Z,-0.09
2023-01-21T00:09:12.745Z,-0.07
2023-01-21T00:11:42.630Z,-0.07
2023-01-21T00:14:12.840Z,-0.05
2023-01-21T00:16:42.688Z,-0.09
2023-01-21T00:19:12.460Z,-0.07
2023-01-21T00:21:42.548Z,0.15
2023-01-21T00:24:13.253Z,0.15
2023-01-21T00:26:43.155Z,0.13
2023-01-21T00:29:12.827Z,0.11
2023-01-21T00:31:42.782Z,0.06
2023-01-21T00:34:12.825Z,-0.07
2023-01-21T00:36:42.594Z,0.04
2023-01-21T00:39:12.486Z,0.10
2023-01-21T00:41:42.294Z,0.14
2023-01-21T00:44:12.803Z,0.02
2023-01-21T00:46:42.780Z,0.10
2023-01-21T00:49:12.700Z,0.19
2023-01-21T00:51:42.444Z,0.19
2023-01-21T00:54:12.653Z,0.02
2023-01-21T00:56:42.443Z,0.06
2023-01-21T00:59:12.285Z,0.06
2023-01-21T01:01:42.407Z,-0.14
2023-01-21T01:04:13.558Z,-0.16
2023-01-21T01:06:43.439Z,-0.12
2023-01-21T01:09:13.210Z,-0.18
2023-01-21T01:11:43.092Z,-0.11
2023-01-21T01:14:12.946Z,-0.11
2023-01-21T01:16:42.741Z,-0.14
2023-01-21T01:19:13.668Z,-0.14
2023-01-21T01:21:43.529Z,-0.18
2023-01-21T01:24:13.620Z,-0.02
2023-01-21T01:26:43.395Z,-0.08
2023-01-21T01:29:13.875Z,-0.20
2023-01-21T01:31:44.265Z,-0.22
2023-01-21T01:34:14.821Z,-0.20
2023-01-21T01:36:44.619Z,-0.33
2023-01-21T01:39:14.470Z,-0.35
2023-01-21T01:41:44.140Z,-0.34
2023-01-21T01:44:49.224Z,-0.31
2023-01-21T01:47:19.805Z,-0.47
2023-01-21T01:49:49.934Z,-0.54
2023-01-21T01:52:21.139Z,-0.31
2023-01-21T01:54:54.257Z,-0.29
2023-01-21T01:57:27.007Z,-0.37
2023-01-21T01:59:57.951Z,-0.37
2023-01-21T02:02:27.509Z,-0.43
2023-01-21T02:05:00.322Z,-0.41
2023-01-21T02:07:33.241Z,-0.46
2023-01-21T02:10:04.003Z,-0.31
2023-01-21T02:12:34.765Z,-0.41
2023-01-21T02:15:07.441Z,-0.49
2023-01-21T02:17:52.072Z,-0.54
2023-01-21T02:20:36.539Z,-0.36
2023-01-21T02:23:21.183Z,-0.45
2023-01-21T02:26:19.239Z,-0.54
2023-01-21T02:29:17.544Z,-0.45
2023-01-21T02:32:23.221Z,-0.45
2023-01-21T02:35:27.064Z,-0.44
2023-01-21T02:38:02.370Z,-0.37
2023-01-21T02:40:46.403Z,-0.63
2023-01-21T02:43:19.537Z,-0.65
2023-01-21T02:45:58.287Z,-0.65
2023-01-21T02:48:36.670Z,-0.67
2023-01-21T02:51:59.836Z,-0.70
2023-01-21T02:54:41.071Z,-0.73
2023-01-21T02:57:13.930Z,-0.72
2023-01-21T02:59:46.922Z,-0.83
2023-01-21T03:02:19.892Z,-0.71
2023-01-21T03:04:58.844Z,-0.71
2023-01-21T03:07:43.490Z,-0.79
2023-01-21T03:10:23.519Z,-0.76
2023-01-21T03:13:19.239Z,-0.81
2023-01-21T03:16:09.750Z,-0.52
2023-01-21T03:18:42.581Z,-0.66
2023-01-21T03:21:18.002Z,-0.74
2023-01-21T03:23:51.433Z,-0.63
2023-01-21T03:26:26.355Z,-0.89
2023-01-21T03:28:58.289Z,-0.76
2023-01-21T03:31:34.268Z,-0.73
2023-01-21T03:34:08.113Z,-0.73
2023-01-21T03:36:49.723Z,-0.70
2023-01-21T03:39:38.901Z,-0.71
2023-01-21T03:42:09.399Z,-0.81
2023-01-21T03:44:40.177Z,-0.75
2023-01-21T03:47:29.184Z,-0.69
2023-01-21T03:50:02.045Z,-0.75
2023-01-21T03:52:32.039Z,-1.00
2023-01-21T03:55:02.294Z,-0.89
2023-01-21T03:57:32.115Z,-0.75
2023-01-21T04:00:01.990Z,-0.85
2023-01-21T04:02:33.746Z,-0.83
2023-01-21T04:05:03.944Z,-0.80
2023-01-21T04:07:33.725Z,-0.80
2023-01-21T04:10:03.566Z,-0.73
2023-01-21T04:12:33.577Z,-0.72
2023-01-21T04:15:05.445Z,-0.91
2023-01-21T04:17:34.651Z,-0.75
2023-01-21T04:20:07.196Z,-1.09
2023-01-21T04:22:37.045Z,-0.95
2023-01-21T04:25:07.939Z,-1.03
2023-01-21T04:27:37.774Z,-0.99
2023-01-21T04:30:09.532Z,-1.08
2023-01-21T04:32:39.395Z,-1.04
2023-01-21T04:35:09.354Z,-1.04
2023-01-21T04:37:39.240Z,-0.96
2023-01-21T04:40:11.008Z,-1.04
2023-01-21T04:42:43.559Z,-1.09
2023-01-21T04:45:13.221Z,-0.99
2023-01-21T04:47:44.441Z,-1.04
2023-01-21T04:50:15.609Z,-0.93
2023-01-21T04:52:45.888Z,-0.87
2023-01-21T04:55:15.860Z,-0.96
2023-01-21T04:57:45.673Z,-0.96
2023-01-21T05:00:18.432Z,-1.13
2023-01-21T05:02:48.792Z,-1.01
2023-01-21T05:05:19.737Z,-0.96
2023-01-21T05:07:51.383Z,-0.91
2023-01-21T05:10:21.687Z,-0.94
2023-01-21T05:12:51.861Z,-1.13
2023-01-21T05:15:21.846Z,-0.99
2023-01-21T05:17:51.647Z,-1.03
2023-01-21T05:20:21.985Z,-1.07
2023-01-21T05:22:51.871Z,-0.93
2023-01-21T05:25:21.891Z,-1.00
2023-01-21T05:27:55.249Z,-0.99
2023-01-21T05:30:25.165Z,-0.94
2023-01-21T05:32:55.768Z,-0.99
2023-01-21T05:35:25.732Z,-1.12
2023-01-21T05:37:55.804Z,-0.99
2023-01-21T05:40:25.617Z,-0.90
2023-01-21T05:42:55.749Z,-0.95
2023-01-21T05:45:25.268Z,-0.99
2023-01-21T05:47:55.065Z,-1.17
2023-01-21T05:50:25.083Z,-1.17
2023-01-21T05:52:54.858Z,-1.08
2023-01-21T05:55:24.602Z,-1.09
2023-01-21T05:57:54.662Z,-1.15
2023-01-21T06:00:24.518Z,-1.07
2023-01-21T06:02:54.296Z,-1.06
2023-01-21T06:05:23.933Z,-1.15
2023-01-21T06:07:53.724Z,-1.35
2023-01-21T06:10:23.345Z,-1.19
2023-01-21T06:12:53.332Z,-1.30
2023-01-21T06:15:23.018Z,-1.28
2023-01-21T06:17:53.987Z,-1.16
2023-01-21T06:20:23.676Z,-1.32
2023-01-21T06:22:53.620Z,-1.16
2023-01-21T06:25:23.342Z,-1.24
2023-01-21T06:27:55.910Z,-1.28
2023-01-21T06:30:26.526Z,-1.20
2023-01-21T06:32:56.010Z,-1.31
2023-01-21T06:35:25.545Z,-1.20
2023-01-21T06:37:55.317Z,-0.94
2023-01-21T06:40:25.726Z,-0.89
2023-01-21T06:42:55.792Z,-0.84
2023-01-21T06:45:25.653Z,-0.92
2023-01-21T06:47:55.429Z,-0.86
2023-01-21T06:50:25.005Z,-0.78
2023-01-21T06:52:54.830Z,-0.94
2023-01-21T06:55:24.486Z,-0.85
2023-01-21T06:57:54.343Z,-0.61
2023-01-21T07:00:24.358Z,-0.53
2023-01-21T07:02:59.376Z,-0.50
2023-01-21T07:05:29.445Z,-0.45
2023-01-21T07:07:59.677Z,-0.46
2023-01-21T07:10:29.435Z,-0.49
2023-01-21T07:12:59.325Z,-0.45
2023-01-21T07:15:30.912Z,-0.45
2023-01-21T07:18:00.811Z,-0.23
2023-01-21T07:20:30.741Z,-0.08
2023-01-21T07:23:00.576Z,-0.08
2023-01-21T07:25:30.502Z,-0.08
2023-01-21T07:28:00.276Z,-0.18
2023-01-21T07:30:30.035Z,-0.33
2023-01-21T07:33:01.337Z,-0.35
2023-01-21T07:35:31.415Z,-0.43
2023-01-21T07:38:01.234Z,-0.35
2023-01-21T07:40:31.176Z,-0.09
2023-01-21T07:43:00.750Z,-0.05
2023-01-21T07:45:30.662Z,-0.02
2023-01-21T07:48:00.797Z,0.02
2023-01-21T07:50:31.000Z,-0.28
2023-01-21T07:53:00.947Z,-0.32
2023-01-21T07:55:31.131Z,-0.20
2023-01-21T07:58:01.264Z,-0.36
2023-01-21T08:00:31.070Z,-0.27
2023-01-21T08:03:00.866Z,-0.25
2023-01-21T08:05:30.353Z,-0.36
2023-01-21T08:08:00.367Z,-0.48
2023-01-21T08:10:30.147Z,-0.38
2023-01-21T08:13:01.854Z,-0.29
2023-01-21T08:15:31.698Z,-0.41
2023-01-21T08:18:01.815Z,-0.17
2023-01-21T08:20:31.620Z,-0.35
2023-01-21T08:23:02.325Z,-0.38
2023-01-21T08:25:32.394Z,-0.51
2023-01-21T08:28:02.195Z,-0.40
2023-01-21T08:30:32.415Z,-0.27
2023-01-21T08:33:02.212Z,-0.32
2023-01-21T08:35:32.134Z,-0.46
2023-01-21T08:38:03.375Z,-0.19
2023-01-21T08:40:33.156Z,-0.11
2023-01-21T08:43:04.752Z,0.04
2023-01-21T08:45:34.584Z,0.04
2023-01-21T08:48:06.784Z,-0.19
2023-01-21T08:50:36.607Z,0.08
2023-01-21T08:53:06.417Z,-0.11
2023-01-21T08:55:35.952Z,0.07
2023-01-21T08:58:06.654Z,0.13
2023-01-21T09:00:36.449Z,0.35
2023-01-21T09:03:05.928Z,0.41
2023-01-21T09:05:35.714Z,0.51
2023-01-21T09:08:06.596Z,0.63
2023-01-21T09:10:53.848Z,0.55
2023-01-21T09:13:23.652Z,0.74
2023-01-21T09:15:53.813Z,0.81
2023-01-21T09:18:23.498Z,1.10
2023-01-21T09:20:53.983Z,0.92
2023-01-21T09:23:27.457Z,0.99
2023-01-21T09:26:06.025Z,0.98
2023-01-21T09:28:38.725Z,0.92
2023-01-21T09:31:11.413Z,0.83
2023-01-21T09:33:44.524Z,1.03
2023-01-21T09:36:16.765Z,0.88
2023-01-21T09:38:48.291Z,1.00
2023-01-21T09:41:23.814Z,1.21
2023-01-21T09:44:08.518Z,1.27
2023-01-21T09:46:41.654Z,1.34
2023-01-21T09:49:20.398Z,1.34
2023-01-21T09:51:53.843Z,1.66
2023-01-21T09:54:29.487Z,1.63
2023-01-21T09:57:10.972Z,1.54
2023-01-21T09:59:49.867Z,1.68
2023-01-21T10:02:28.221Z,1.58
2023-01-21T10:05:05.413Z,1.72
2023-01-21T10:07:41.190Z,1.80
2023-01-21T10:10:23.566Z,1.95
2023-01-21T10:13:08.518Z,1.89
2023-01-21T10:15:52.628Z,1.72
2023-01-21T10:18:30.564Z,1.52
2023-01-21T10:21:03.906Z,1.72
2023-01-21T10:23:38.708Z,1.89
2023-01-21T10:26:13.149Z,2.04
2023-01-21T10:28:51.663Z,1.92
2023-01-21T10:31:27.023Z,2.14
2023-01-21T10:33:56.975Z,2.44
2023-01-21T10:36:35.585Z,2.22
2023-01-21T10:39:17.265Z,2.06
2023-01-21T10:42:06.268Z,2.23
2023-01-21T10:44:39.118Z,2.05
2023-01-21T10:47:20.471Z,2.51
2023-01-21T10:49:53.331Z,2.42
2023-01-21T10:52:46.191Z,2.35
2023-01-21T10:55:21.668Z,2.60
2023-01-21T10:58:03.619Z,2.88
2023-01-21T11:00:36.394Z,3.01
2023-01-21T11:03:41.250Z,3.35
2023-01-21T11:06:14.885Z,3.36
2023-01-21T11:08:47.494Z,3.54
2023-01-21T11:11:20.371Z,3.66
2023-01-21T11:13:50.282Z,3.60
2023-01-21T11:16:44.009Z,3.29
2023-01-21T11:19:19.397Z,3.23
2023-01-21T11:22:20.206Z,3.17
2023-01-21T11:24:52.761Z,3.24
2023-01-21T11:27:25.678Z,3.14
2023-01-21T11:29:55.815Z,3.36
2023-01-21T11:32:27.918Z,3.05
2023-01-21T11:35:12.911Z,3.40
2023-01-21T11:37:45.813Z,3.84
2023-01-21T11:40:21.584Z,3.74
2023-01-21T11:42:54.464Z,3.96
2023-01-21T11:45:32.761Z,3.64
2023-01-21T11:48:02.731Z,3.83
2023-01-21T11:50:35.367Z,3.86
2023-01-21T11:53:13.864Z,3.80
2023-01-21T11:55:55.136Z,3.47
2023-01-21T11:58:28.008Z,3.43
2023-01-21T12:01:00.564Z,3.84
2023-01-21T12:03:39.693Z,3.67
2023-01-21T12:06:14.540Z,3.80
2023-01-21T12:08:45.832Z,3.81
2023-01-21T12:11:21.689Z,3.91
2023-01-21T12:14:00.785Z,3.32
2023-01-21T12:16:36.172Z,3.20
2023-01-21T12:19:16.868Z,3.60
2023-01-21T12:22:24.064Z,4.04
2023-01-21T12:25:22.267Z,3.95
2023-01-21T12:28:11.647Z,3.81
2023-01-21T12:30:44.574Z,4.10
2023-01-21T12:33:23.483Z,3.84
2023-01-21T12:35:58.857Z,3.69
2023-01-21T12:38:31.629Z,4.01
2023-01-21T12:41:13.071Z,4.09
2023-01-21T12:43:48.790Z,3.90
2023-01-21T12:46:30.172Z,4.17
2023-01-21T12:49:15.571Z,4.25
2023-01-21T12:51:48.706Z,3.86
2023-01-21T12:54:37.547Z,3.91
2023-01-21T12:57:16.571Z,3.87
2023-01-21T12:59:58.559Z,3.95
2023-01-21T13:02:49.369Z,3.89
2023-01-21T13:05:33.562Z,4.08
2023-01-21T13:08:30.537Z,3.93
2023-01-21T13:11:06.795Z,4.10
2023-01-21T13:13:54.073Z,4.15
2023-01-21T13:16:26.499Z,4.13
2023-01-21T13:18:56.666Z,4.25
2023-01-21T13:21:29.533Z,4.30
2023-01-21T13:24:17.060Z,4.30
2023-01-21T13:26:55.373Z,4.31
2023-01-21T13:29:31.877Z,4.38
2023-01-21T13:32:16.242Z,4.16
2023-01-21T13:34:49.119Z,4.82
2023-01-21T13:37:39.802Z,4.55
2023-01-21T13:40:46.356Z,4.92
2023-01-21T13:43:33.984Z,5.72
2023-01-21T13:49:08.503Z,5.94
2023-01-21T13:51:53.148Z,5.75
2023-01-21T13:54:31.721Z,5.67
2023-01-21T13:57:07.165Z,5.38
2023-01-21T13:59:42.339Z,4.88
2023-01-21T14:02:32.762Z,4.86
2023-01-21T14:05:08.306Z,4.57
2023-01-21T14:07:52.732Z,4.69
2023-01-21T14:10:28.374Z,4.54
2023-01-21T14:13:13.084Z,4.50
2023-01-21T14:15:45.985Z,4.42
2023-01-21T14:18:24.286Z,4.22
2023-01-21T14:21:30.017Z,4.39
2023-01-21T14:24:17.326Z,4.51
2023-01-21T14:27:07.812Z,4.52
2023-01-21T14:29:40.695Z,4.51
2023-01-21T14:32:29.492Z,4.44
2023-01-21T14:35:10.963Z,4.24
2023-01-21T14:37:47.009Z,4.29
2023-01-21T14:40:22.763Z,4.11
2023-01-21T14:42:53.185Z,4.38
2023-01-21T14:45:25.784Z,4.40
2023-01-21T14:47:58.603Z,3.96
2023-01-21T14:50:54.124Z,4.13
2023-01-21T14:53:26.851Z,4.13
2023-01-21T14:56:13.096Z,4.13
2023-01-21T14:58:49.158Z,4.32
2023-01-21T15:01:28.027Z,4.28
2023-01-21T15:03:59.788Z,3.90
2023-01-21T15:06:30.201Z,3.90
2023-01-21T15:09:01.552Z,4.11
2023-01-21T15:11:37.535Z,4.22
2023-01-21T15:14:30.320Z,3.91
2023-01-21T15:17:00.159Z,4.09
2023-01-21T15:19:35.514Z,4.14
2023-01-21T15:22:23.238Z,3.99
2023-01-21T15:25:19.616Z,3.97
2023-01-21T15:28:24.194Z,4.09
2023-01-21T15:31:02.540Z,4.13
2023-01-21T15:33:34.649Z,3.92
2023-01-21T15:36:08.488Z,3.85
2023-01-21T15:38:41.503Z,3.73
2023-01-21T15:41:23.139Z,3.76
2023-01-21T15:44:01.853Z,3.76
2023-01-21T15:46:34.365Z,3.39
2023-01-21T15:49:25.289Z,3.61
2023-01-21T15:52:14.457Z,3.70
2023-01-21T15:55:11.103Z,3.55
2023-01-21T15:58:01.801Z,3.43
2023-01-21T16:00:37.143Z,3.39
2023-01-21T16:03:18.593Z,3.47
2023-01-21T16:05:57.344Z,3.41
2023-01-21T16:08:46.200Z,3.22
2023-01-21T16:11:45.970Z,3.45
2023-01-21T16:14:24.795Z,3.16
2023-01-21T16:16:57.635Z,3.16
2023-01-21T16:19:33.626Z,3.12
2023-01-21T16:22:07.562Z,3.11
2023-01-21T16:24:40.763Z,3.24
2023-01-21T16:27:19.327Z,3.16
2023-01-21T16:29:50.701Z,2.95
2023-01-21T16:32:20.871Z,2.95
2023-01-21T16:34:50.642Z,2.63
2023-01-21T16:37:25.287Z,2.78
2023-01-21T16:40:14.180Z,2.66
2023-01-21T16:42:44.647Z,2.64
2023-01-21T16:45:25.556Z,2.58
2023-01-21T16:48:00.705Z,2.72
2023-01-21T16:50:32.982Z,2.51
2023-01-21T16:53:05.795Z,2.39
2023-01-21T16:55:37.103Z,2.34
2023-01-21T16:58:11.046Z,2.45
2023-01-21T17:00:41.173Z,2.24
2023-01-21T17:03:12.527Z,2.44
2023-01-21T17:05:42.535Z,2.48
2023-01-21T17:08:14.968Z,2.53
2023-01-21T17:11:05.774Z,2.48
2023-01-21T17:13:38.849Z,2.41
2023-01-21T17:16:29.219Z,2.53
2023-01-21T17:19:04.945Z,2.52
2023-01-21T17:21:43.222Z,2.31
2023-01-21T17:24:22.215Z,2.39
2023-01-21T17:26:54.989Z,2.50
2023-01-21T17:29:32.918Z,2.45
2023-01-21T17:32:22.105Z,2.45
2023-01-21T17:35:06.815Z,2.44
2023-01-21T17:38:05.821Z,2.59
2023-01-21T17:41:01.819Z,2.38
2023-01-21T17:43:32.321Z,2.26
2023-01-21T17:46:02.955Z,1.99
2023-01-21T17:48:38.799Z,1.94
2023-01-21T17:51:14.595Z,1.73
2023-01-21T17:53:56.893Z,1.78
2023-01-21T17:56:40.198Z,1.73
2023-01-21T17:59:37.937Z,1.56
2023-01-21T18:02:14.959Z,1.42
2023-01-21T18:04:44.883Z,1.59
2023-01-21T18:07:23.676Z,1.37
2023-01-21T18:09:57.039Z,1.38
2023-01-21T18:12:27.397Z,1.36
2023-01-21T18:14:58.484Z,1.33
2023-01-21T18:17:28.676Z,1.42
2023-01-21T18:19:58.818Z,1.47
2023-01-21T18:22:31.866Z,1.29
2023-01-21T18:25:02.854Z,1.29
2023-01-21T18:27:32.864Z,1.26
2023-01-21T18:30:02.741Z,1.33
2023-01-21T18:32:32.585Z,1.12
2023-01-21T18:35:02.687Z,1.28
2023-01-21T18:37:32.587Z,1.16
2023-01-21T18:40:02.973Z,1.21
2023-01-21T18:42:34.067Z,1.10
2023-01-21T18:45:03.924Z,0.89
2023-01-21T18:47:33.686Z,0.96
2023-01-21T18:50:03.749Z,0.99
2023-01-21T18:52:33.955Z,0.86
2023-01-21T18:55:03.718Z,0.70
2023-01-21T18:57:33.683Z,0.77
2023-01-21T19:00:06.289Z,0.68
2023-01-21T19:02:36.568Z,0.62
2023-01-21T19:05:08.286Z,0.68
2023-01-21T19:07:38.156Z,0.73
2023-01-21T19:10:13.184Z,0.56
2023-01-21T19:12:43.580Z,0.77
2023-01-21T19:15:19.269Z,0.74
2023-01-21T19:17:50.987Z,0.63
2023-01-21T19:20:23.304Z,0.85
2023-01-21T19:22:54.778Z,0.66
2023-01-21T19:25:26.852Z,0.62
2023-01-21T19:27:57.995Z,0.60
2023-01-21T19:30:30.364Z,0.62
2023-01-21T19:33:03.794Z,0.66
2023-01-21T19:35:37.510Z,0.46
2023-01-21T19:38:23.216Z,0.46
2023-01-21T19:40:53.012Z,0.55
2023-01-21T19:43:23.303Z,0.47
2023-01-21T19:45:55.751Z,0.48
2023-01-21T19:48:25.695Z,0.49
2023-01-21T19:50:55.537Z,0.49
2023-01-21T19:53:25.359Z,0.45
2023-01-21T19:55:55.569Z,0.43
2023-01-21T19:58:28.419Z,0.43
2023-01-21T20:00:58.316Z,0.43
2023-01-21T20:03:30.415Z,0.48
2023-01-21T20:06:04.868Z,0.29
2023-01-21T20:08:34.507Z,0.35
2023-01-21T20:11:04.392Z,0.35
2023-01-21T20:13:35.810Z,0.20
2023-01-21T20:16:14.002Z,0.26
2023-01-21T20:18:46.153Z,0.05
2023-01-21T20:21:16.153Z,-0.02
2023-01-21T20:23:46.003Z,0.17
2023-01-21T20:26:18.556Z,0.04
2023-01-21T20:28:50.402Z,0.25
2023-01-21T20:31:20.414Z,0.03
2023-01-21T20:33:50.193Z,0.26
2023-01-21T20:36:23.009Z,0.29
2023-01-21T20:38:54.871Z,0.29
2023-01-21T20:41:25.092Z,0.36
2023-01-21T20:43:54.866Z,0.26
2023-01-21T20:46:27.440Z,0.24
2023-01-21T20:48:58.442Z,0.21
2023-01-21T20:51:28.353Z,0.09
2023-01-21T20:53:58.217Z,-0.03
2023-01-21T20:56:32.810Z,0.07
2023-01-21T20:59:02.735Z,0.03
2023-01-21T21:01:34.208Z,0.09
2023-01-21T21:04:06.956Z,-0.06
2023-01-21T21:06:36.787Z,-0.21
2023-01-21T21:09:06.587Z,-0.07
2023-01-21T21:11:36.376Z,0.07
2023-01-21T21:14:08.196Z,-0.04
2023-01-21T21:16:38.106Z,-0.18
2023-01-21T21:19:09.517Z,-0.16
2023-01-21T21:21:39.317Z,-0.26
2023-01-21T21:24:10.956Z,-0.26
2023-01-21T21:26:40.818Z,-0.30
2023-01-21T21:29:14.141Z,-0.35
2023-01-21T21:31:43.715Z,-0.32
2023-01-21T21:34:13.927Z,-0.40
2023-01-21T21:36:44.115Z,-0.39
2023-01-21T21:39:15.633Z,-0.43
2023-01-21T21:42:03.204Z,-0.50
2023-01-21T21:44:33.044Z,-0.37
2023-01-21T21:47:20.663Z,-0.48
2023-01-21T21:49:50.420Z,-0.40
2023-01-21T21:52:24.113Z,-0.51
2023-01-21T21:54:54.739Z,-0.51
2023-01-21T21:57:24.221Z,-0.51
2023-01-21T21:59:53.981Z,-0.51
2023-01-21T22:02:23.536Z,-0.44
2023-01-21T22:04:54.815Z,-0.51
2023-01-21T22:07:24.415Z,-0.70
2023-01-21T22:09:54.219Z,-0.54
2023-01-21T22:12:24.246Z,-0.72
2023-01-21T22:14:54.001Z,-0.75
2023-01-21T22:17:23.849Z,-0.77
2023-01-21T22:19:53.686Z,-0.84
2023-01-21T22:22:23.455Z,-0.83
2023-01-21T22:24:54.759Z,-0.90
2023-01-21T22:27:24.775Z,-0.90
2023-01-21T22:29:54.582Z,-0.78
2023-01-21T22:32:24.199Z,-0.93
2023-01-21T22:34:53.990Z,-0.86
2023-01-21T22:37:23.548Z,-0.74
2023-01-21T22:39:53.764Z,-0.82
2023-01-21T22:42:23.225Z,-0.78
2023-01-21T22:44:53.039Z,-0.90
2023-01-21T22:47:22.816Z,-0.93
2023-01-21T22:49:52.671Z,-0.93
2023-01-21T22:52:22.172Z,-0.84
2023-01-21T22:54:52.519Z,-0.88
2023-01-21T22:57:22.711Z,-0.87
2023-01-21T22:59:52.829Z,-0.97
2023-01-21T23:02:23.981Z,-0.98
2023-01-21T23:04:54.011Z,-0.98
2023-01-21T23:07:23.850Z,-1.03
2023-01-21T23:09:53.907Z,-0.93
2023-01-21T23:12:23.984Z,-0.87
2023-01-21T23:14:53.819Z,-1.00
2023-01-21T23:17:23.661Z,-0.82
2023-01-21T23:19:53.435Z,-1.03
2023-01-21T23:22:23.248Z,-0.93
2023-01-21T23:24:53.103Z,-0.92
2023-01-21T23:27:22.909Z,-1.16
2023-01-21T23:29:52.764Z,-1.07
2023-01-21T23:32:22.380Z,-1.05
2023-01-21T23:34:52.160Z,-1.02
2023-01-21T23:37:24.490Z,-1.04
2023-01-21T23:39:54.450Z,-1.14
2023-01-21T23:42:24.325Z,-1.21
2023-01-21T23:44:54.098Z,-1.13
2023-01-21T23:47:24.565Z,-1.17
2023-01-21T23:49:54.364Z,-0.98
2023-01-21T23:52:24.054Z,-1.05
2023-01-21T23:54:53.827Z,-1.11
2023-01-21T23:57:23.593Z,-1.01
2023-01-21T23:59:53.665Z,-1.01
